Aérodrome :
LOGIN :

S'inscrire | Disclaimer

   EN    FR    IT 

 










Légende :    VFR   VFR Marginal   IFR   IFR Intensif   IFR Très Intensif
Visi : 
Plafond : 
>= 8 km
>= 3000ft
5 à 8 km
1000 à 3000 ft
1500m à 5 km
500 à 1000 ft
800 à 1500m
200 à 500 ft
< 800m
< 200 ft
Symboles :   Orages  Brouillard  Fortes neiges  Fortes précipitations  Vent > 20 kt
SIGMETs :   Divers  Orages  Givrage  Turbulence  Onde Orograph.  Cendres Volcan.






- Altitude de l'aérodrome : 1460 ft


LSMA - Alpnach

METARs EXPIRÉS :
  • 011620Z AUTO 00000KT 9999NDV FEW045 BKN065 18/13 Q1022 RMK
  • 012150Z AUTO VRB02KT 9999NDV NCD 13/12 Q1023 RMK
  • 012120Z AUTO VRB02KT 9999NDV NCD 13/12 Q1023 RMK
  • 012050Z AUTO VRB02KT 9999NDV NCD 14/12 Q1023 RMK
  • 012020Z AUTO VRB02KT 9999NDV FEW060 SCT070 15/13 Q1023 RMK
  • 010520Z AUTO 06003KT 350V130 9999NDV -RA FEW011 BKN014 OVC032 14/13 Q1020 RMK
  • 011950Z AUTO 19003KT 2200NDV BKN056 BKN071 16/13 Q1023 RMK

Prévision TAF périmée.



MET'MAP, la Météo Aéronautique d'un coup d'oeil ! - Copyright ORBIFLY Décembre 2007 - Disclaimer

ORBIFLY MET'MAP TEAM :

Programmation & Développement : Alexandra Zaïnal
Sur une idée originale de : Baudouin d'Aumeries
Soutien technique & logistique : Manuel Goepfert
Assistance : Marc-Olivier Méhu




SOURCES & CREDITS :

   NOAA